createdAt,value
2023-06-29T00:01:34.609Z,101178.19
2023-06-29T00:06:38.114Z,101171.22
2023-06-29T00:11:40.230Z,101172.13
2023-06-29T00:16:43.175Z,101174.94
2023-06-29T00:21:46.433Z,101168.91
2023-06-29T00:26:48.529Z,101171.75
2023-06-29T00:31:50.626Z,101167.41
2023-06-29T00:36:54.208Z,101168.44
2023-06-29T00:41:56.705Z,101164.97
2023-06-29T00:46:59.367Z,101165.09
2023-06-29T00:52:02.977Z,101158.09
2023-06-29T00:57:05.281Z,101147.53
2023-06-29T01:02:07.472Z,101148.50
2023-06-29T01:07:16.672Z,101146.75
2023-06-29T01:12:20.475Z,101138.84
2023-06-29T01:17:25.795Z,101138.00
2023-06-29T01:22:39.372Z,101141.34
2023-06-29T01:27:42.942Z,101131.16
2023-06-29T01:32:44.843Z,101136.75
2023-06-29T01:37:50.986Z,101124.63
2023-06-29T01:42:56.657Z,101125.50
2023-06-29T01:47:59.537Z,101123.81
2023-06-29T01:53:01.295Z,101124.00
2023-06-29T01:58:04.984Z,101120.53
2023-06-29T02:03:07.092Z,101125.06
2023-06-29T02:08:09.153Z,101126.00
2023-06-29T02:13:12.662Z,101125.75
2023-06-29T02:18:15.174Z,101124.03
2023-06-29T02:23:17.310Z,101130.44
2023-06-29T02:28:20.726Z,101125.13
2023-06-29T02:33:22.897Z,101128.66
2023-06-29T02:38:24.700Z,101130.41
2023-06-29T02:43:28.148Z,101142.91
2023-06-29T02:48:29.872Z,101130.31
2023-06-29T02:53:31.997Z,101125.09
2023-06-29T02:58:35.486Z,101129.63
2023-06-29T03:03:37.638Z,101125.94
2023-06-29T03:08:39.700Z,101138.94
2023-06-29T03:13:43.369Z,101148.06
2023-06-29T03:18:45.611Z,101144.53
2023-06-29T03:23:47.956Z,101145.94
2023-06-29T03:28:51.381Z,101141.94
2023-06-29T03:33:53.509Z,101134.44
2023-06-29T03:38:55.296Z,101137.47
2023-06-29T03:43:58.760Z,101135.19
2023-06-29T03:49:00.905Z,101135.03
2023-06-29T03:54:02.876Z,101134.69
2023-06-29T03:59:06.323Z,101134.28
2023-06-29T04:04:08.521Z,101132.06
2023-06-29T04:09:11.378Z,101142.28
2023-06-29T04:14:14.961Z,101141.72
2023-06-29T04:19:17.231Z,101136.63
2023-06-29T04:24:19.412Z,101134.47
2023-06-29T04:29:23.318Z,101133.88
2023-06-29T04:34:25.051Z,101134.47
2023-06-29T04:39:27.379Z,101137.31
2023-06-29T04:44:32.578Z,101135.19
2023-06-29T04:49:34.729Z,101135.00
2023-06-29T04:54:37.199Z,101128.03
2023-06-29T04:59:40.685Z,101128.50
2023-06-29T05:04:42.396Z,101123.94
2023-06-29T05:09:44.910Z,101126.47
2023-06-29T05:14:48.407Z,101123.84
2023-06-29T05:19:51.055Z,101120.59
2023-06-29T05:24:53.088Z,101119.00
2023-06-29T05:29:56.310Z,101123.56
2023-06-29T05:34:58.219Z,101126.34
2023-06-29T05:40:00.435Z,101130.03
2023-06-29T05:45:04.260Z,101127.25
2023-06-29T05:50:07.024Z,101127.91
2023-06-29T05:55:09.888Z,101127.25
2023-06-29T06:00:14.312Z,101131.78
2023-06-29T06:05:16.577Z,101128.63
2023-06-29T06:10:18.748Z,101124.09
2023-06-29T06:15:21.890Z,101131.94
2023-06-29T06:20:24.023Z,101121.13
2023-06-29T06:25:26.037Z,101132.16
2023-06-29T06:30:29.547Z,101129.06
2023-06-29T06:35:31.717Z,101128.09
2023-06-29T06:40:33.504Z,101125.59
2023-06-29T06:45:36.700Z,101131.97
2023-06-29T06:50:38.705Z,101125.16
2023-06-29T06:55:41.177Z,101134.25
2023-06-29T07:00:44.577Z,101128.03
2023-06-29T07:05:47.029Z,101128.88
2023-06-29T07:16:20.411Z,101124.44
2023-06-29T07:21:28.243Z,101126.78
2023-06-29T07:26:33.262Z,101120.50
2023-06-29T07:31:42.059Z,101125.69
2023-06-29T07:36:44.271Z,101115.09
2023-06-29T07:41:46.585Z,101121.44
2023-06-29T07:46:49.868Z,101111.13
2023-06-29T07:51:51.675Z,101112.88
2023-06-29T08:01:59.574Z,101113.06
2023-06-29T08:07:01.610Z,101110.88
2023-06-29T08:12:04.392Z,101115.44
2023-06-29T08:17:07.612Z,101111.84
2023-06-29T08:22:09.666Z,101106.63
2023-06-29T08:27:11.498Z,101113.50
2023-06-29T08:32:14.727Z,101105.94
2023-06-29T08:37:16.519Z,101097.81
2023-06-29T08:42:19.178Z,101101.03
2023-06-29T08:47:23.913Z,101102.34
2023-06-29T08:52:27.471Z,101103.69
2023-06-29T08:57:30.535Z,101091.41
2023-06-29T09:02:35.301Z,101090.03
2023-06-29T09:07:38.594Z,101095.97
2023-06-29T09:12:40.921Z,101089.28
2023-06-29T09:17:45.550Z,101094.09
2023-06-29T09:22:50.185Z,101091.03
2023-06-29T09:28:02.312Z,101090.09
2023-06-29T09:33:10.157Z,101086.13
2023-06-29T09:38:11.966Z,101083.91
2023-06-29T09:43:16.718Z,101072.41
2023-06-29T09:53:32.151Z,101070.59
2023-06-29T09:58:34.676Z,101069.75
2023-06-29T10:03:37.867Z,101059.63
2023-06-29T10:08:41.223Z,101057.34
2023-06-29T10:13:48.841Z,101055.41
2023-06-29T10:18:57.357Z,101048.56
2023-06-29T10:24:01.482Z,101057.66
2023-06-29T10:29:04.476Z,101035.66
2023-06-29T10:34:09.109Z,101028.16
2023-06-29T10:39:40.613Z,101037.91
2023-06-29T10:44:47.175Z,101027.59
2023-06-29T10:49:56.672Z,101028.28
2023-06-29T10:55:14.364Z,101018.53
2023-06-29T11:00:17.056Z,101014.44
2023-06-29T11:05:21.468Z,101012.69
2023-06-29T11:10:23.897Z,101011.34
2023-06-29T11:15:28.116Z,101010.63
2023-06-29T11:20:31.673Z,101000.41
2023-06-29T11:25:34.874Z,100990.97
2023-06-29T11:30:39.460Z,100999.16
2023-06-29T11:35:47.112Z,100993.00
2023-06-29T11:40:48.947Z,100982.56
2023-06-29T11:45:50.819Z,100985.41
2023-06-29T11:50:54.149Z,100971.25
2023-06-29T11:55:55.853Z,100969.25
2023-06-29T12:00:57.794Z,100973.41
2023-06-29T12:06:02.035Z,100965.19
2023-06-29T12:11:04.640Z,100951.44
2023-06-29T12:21:19.555Z,100937.16
2023-06-29T12:26:22.444Z,100941.16
2023-06-29T12:31:28.041Z,100933.59
2023-06-29T12:36:31.476Z,100930.25
2023-06-29T12:41:33.467Z,100927.31
2023-06-29T12:46:35.296Z,100918.84
2023-06-29T12:51:39.096Z,100922.31
2023-06-29T12:56:40.890Z,100918.91
2023-06-29T13:01:42.659Z,100909.38
2023-06-29T13:06:45.886Z,100905.41
2023-06-29T13:11:47.980Z,100902.13
2023-06-29T13:16:50.300Z,100904.59
2023-06-29T13:21:54.795Z,100888.34
2023-06-29T13:26:58.154Z,100892.22
2023-06-29T13:32:00.593Z,100884.03
2023-06-29T13:37:04.893Z,100884.34
2023-06-29T13:42:07.034Z,100877.09
2023-06-29T13:47:09.177Z,100866.38
2023-06-29T13:52:12.760Z,100866.22
2023-06-29T13:57:14.587Z,100871.69
2023-06-29T14:02:16.782Z,100861.34
2023-06-29T14:07:20.422Z,100852.03
2023-06-29T14:12:22.406Z,100847.75
2023-06-29T14:17:24.619Z,100833.56
2023-06-29T14:22:28.182Z,100831.22
2023-06-29T14:27:31.058Z,100833.97
2023-06-29T14:32:33.202Z,100827.44
2023-06-29T14:37:36.530Z,100824.47
2023-06-29T14:42:38.697Z,100813.69
2023-06-29T14:47:40.807Z,100823.75
2023-06-29T14:52:44.416Z,100794.91
2023-06-29T14:57:48.349Z,100800.16
2023-06-29T15:02:51.080Z,100799.78
2023-06-29T15:07:54.620Z,100786.06
2023-06-29T15:12:56.793Z,100787.44
2023-06-29T15:17:58.927Z,100776.50
2023-06-29T15:23:02.099Z,100783.25
2023-06-29T15:28:04.452Z,100771.69
2023-06-29T15:33:06.544Z,100776.00
2023-06-29T15:38:10.383Z,100773.03
2023-06-29T15:43:12.593Z,100767.34
2023-06-29T15:48:14.897Z,100760.03
2023-06-29T15:53:18.602Z,100752.03
2023-06-29T15:58:20.375Z,100754.38
2023-06-29T16:03:22.914Z,100742.78
2023-06-29T16:08:26.989Z,100738.28
2023-06-29T16:13:29.117Z,100738.41
2023-06-29T16:18:31.848Z,100729.44
2023-06-29T16:23:37.944Z,100725.81
2023-06-29T16:28:40.221Z,100713.91
2023-06-29T16:33:42.048Z,100706.00
2023-06-29T16:38:45.489Z,100700.81
2023-06-29T16:43:47.334Z,100705.56
2023-06-29T16:48:56.962Z,100699.88
2023-06-29T16:54:00.468Z,100700.63
2023-06-29T16:59:03.088Z,100696.88
2023-06-29T17:04:04.944Z,100697.50
2023-06-29T17:09:08.357Z,100698.13
2023-06-29T17:14:10.619Z,100700.34
2023-06-29T17:19:13.463Z,100690.78
2023-06-29T17:24:16.880Z,100701.81
2023-06-29T17:29:18.961Z,100692.53
2023-06-29T17:34:21.670Z,100686.06
2023-06-29T17:39:25.429Z,100684.66
2023-06-29T17:44:28.122Z,100675.81
2023-06-29T17:49:30.129Z,100683.84
2023-06-29T17:54:33.253Z,100675.88
2023-06-29T17:59:35.111Z,100661.63
2023-06-29T18:04:36.890Z,100660.06
2023-06-29T18:09:40.101Z,100668.28
2023-06-29T18:14:42.108Z,100661.66
2023-06-29T18:19:43.988Z,100659.44
2023-06-29T18:24:47.374Z,100659.34
2023-06-29T18:29:49.518Z,100651.88
2023-06-29T18:34:51.924Z,100646.13
2023-06-29T18:39:55.894Z,100643.44
2023-06-29T18:44:57.794Z,100652.69
2023-06-29T18:50:00.373Z,100645.19
2023-06-29T18:55:04.250Z,100643.94
2023-06-29T19:00:07.710Z,100642.63
2023-06-29T19:05:09.633Z,100642.53
2023-06-29T19:10:13.324Z,100644.06
2023-06-29T19:15:15.595Z,100641.91
2023-06-29T19:20:17.367Z,100643.78
2023-06-29T19:25:20.975Z,100649.28
2023-06-29T19:30:23.454Z,100645.81
2023-06-29T19:35:25.653Z,100653.31
2023-06-29T19:40:28.977Z,100654.38
2023-06-29T19:45:30.761Z,100658.34
2023-06-29T19:50:33.042Z,100669.75
2023-06-29T19:55:36.427Z,100668.13
2023-06-29T20:00:38.219Z,100666.19
2023-06-29T20:05:41.446Z,100667.56
2023-06-29T20:10:45.185Z,100671.44
2023-06-29T20:15:47.658Z,100670.59
2023-06-29T20:20:49.972Z,100668.78
2023-06-29T20:25:53.485Z,100668.63
2023-06-29T20:30:56.495Z,100664.94
2023-06-29T20:35:58.640Z,100658.16
2023-06-29T20:41:02.033Z,100650.44
2023-06-29T20:46:04.378Z,100655.25
2023-06-29T20:51:17.116Z,100653.66
2023-06-29T20:56:21.916Z,100660.28
2023-06-29T21:01:24.095Z,100645.53
2023-06-29T21:06:26.064Z,100648.66
2023-06-29T21:16:33.089Z,100654.06
2023-06-29T21:21:36.263Z,100655.28
2023-06-29T21:26:40.010Z,100645.19
2023-06-29T21:31:43.476Z,100649.88
2023-06-29T21:36:45.849Z,100643.97
2023-06-29T21:41:49.271Z,100642.59
2023-06-29T21:46:51.067Z,100641.28
2023-06-29T21:51:53.643Z,100648.88
2023-06-29T21:56:57.122Z,100645.91
2023-06-29T22:01:58.916Z,100648.75
2023-06-29T22:07:11.605Z,100642.94
2023-06-29T22:12:19.472Z,100650.44
2023-06-29T22:17:21.187Z,100646.25
2023-06-29T22:22:23.378Z,100635.31
2023-06-29T22:27:27.045Z,100645.31
2023-06-29T22:32:29.447Z,100645.06
2023-06-29T22:37:31.442Z,100645.78
2023-06-29T22:42:35.133Z,100643.06
2023-06-29T22:47:37.111Z,100649.94
2023-06-29T22:52:39.504Z,100648.28
2023-06-29T22:57:43.055Z,100642.19
2023-06-29T23:02:45.368Z,100638.88
2023-06-29T23:07:47.848Z,100639.06
2023-06-29T23:12:51.311Z,100637.25
2023-06-29T23:17:53.488Z,100631.31
2023-06-29T23:22:55.686Z,100634.19
2023-06-29T23:27:59.154Z,100640.19
2023-06-29T23:33:01.586Z,100645.78
2023-06-29T23:38:03.892Z,100639.66
2023-06-29T23:43:07.577Z,100641.75
2023-06-29T23:48:09.564Z,100653.56
2023-06-29T23:53:11.712Z,100651.47
2023-06-29T23:58:15.040Z,100648.94
